createdAt,value
2022-08-30T05:55:05.577Z,2596.00
2022-08-30T05:56:09.040Z,2676.00
2022-08-30T05:57:06.334Z,2692.00
2022-08-30T05:58:06.381Z,2700.00
2022-08-30T05:59:06.365Z,2740.00
2022-08-30T06:00:06.336Z,2804.00
2022-08-30T06:01:06.311Z,2848.00
2022-08-30T06:02:06.383Z,2844.00
2022-08-30T06:03:06.313Z,2908.00
2022-08-30T06:04:07.053Z,3000.00
2022-08-30T06:05:06.307Z,3044.00
2022-08-30T06:06:06.266Z,3072.00
2022-08-30T06:07:06.263Z,3120.00
2022-08-30T06:08:06.223Z,3156.00
2022-08-30T06:09:06.306Z,3216.00
2022-08-30T06:10:06.232Z,3044.00
2022-08-30T06:11:06.182Z,3336.00
2022-08-30T06:12:06.205Z,3420.00
2022-08-30T06:13:06.166Z,3448.00
2022-08-30T06:14:06.220Z,3556.00
2022-08-30T06:15:06.152Z,3436.00
2022-08-30T06:16:06.202Z,3284.00
2022-08-30T06:17:06.123Z,3244.00
2022-08-30T06:18:06.142Z,2388.00
2022-08-30T06:19:06.111Z,3244.00
2022-08-30T06:20:06.129Z,2240.00
2022-08-30T06:21:06.083Z,2344.00
2022-08-30T06:22:06.097Z,2356.00
2022-08-30T06:23:06.042Z,2392.00
2022-08-30T06:24:06.050Z,3364.00
2022-08-30T06:25:06.041Z,3112.00
2022-08-30T06:26:06.093Z,2512.00
2022-08-30T06:27:06.035Z,2296.00
2022-08-30T06:28:05.996Z,4212.00
2022-08-30T06:29:05.995Z,4040.00
2022-08-30T06:30:06.044Z,4084.00
2022-08-30T06:31:06.013Z,3924.00
2022-08-30T06:32:05.971Z,3112.00
2022-08-30T06:51:27.708Z,4380.00
2022-08-30T06:52:27.994Z,4424.00
2022-08-30T06:53:27.584Z,4456.00
2022-08-30T06:54:27.659Z,4520.00
2022-08-30T06:55:27.487Z,4564.00
2022-08-30T06:56:28.634Z,4560.00
2022-08-30T06:57:28.584Z,4584.00
2022-08-30T06:58:28.577Z,4624.00
2022-08-30T06:59:28.577Z,4584.00
2022-08-30T07:00:28.572Z,4440.00
2022-08-30T07:03:38.371Z,4504.00
2022-08-30T07:04:37.532Z,4280.00
2022-08-30T07:05:37.600Z,3568.00
2022-08-30T07:06:37.494Z,3360.00
2022-08-30T07:07:37.427Z,3888.00
2022-08-30T07:08:37.434Z,3516.00
2022-08-30T07:09:37.416Z,3528.00
2022-08-30T07:10:37.384Z,3912.00
2022-08-30T07:11:37.383Z,3280.00
2022-08-30T07:12:37.413Z,3176.00
2022-08-30T07:13:37.359Z,3152.00
2022-08-30T07:14:37.398Z,3368.00
2022-08-30T07:15:38.605Z,3968.00
2022-08-30T07:16:38.452Z,3192.00
2022-08-30T07:17:38.456Z,3196.00
2022-08-30T07:18:38.572Z,3308.00
2022-08-30T07:19:38.428Z,3416.00
2022-08-30T07:20:40.603Z,3612.00
2022-08-30T07:21:38.411Z,3828.00
2022-08-30T07:22:38.449Z,5136.00
2022-08-30T07:23:38.366Z,3676.00
2022-08-30T07:24:38.342Z,3840.00
2022-08-30T07:25:38.344Z,3464.00
2022-08-30T07:26:38.350Z,3508.00
2022-08-30T07:27:38.352Z,4956.00
2022-08-30T07:28:38.306Z,5484.00
2022-08-30T07:29:38.301Z,5476.00
2022-08-30T07:30:38.303Z,5596.00
2022-08-30T07:31:38.286Z,5600.00
2022-08-30T07:32:38.274Z,5644.00
2022-08-30T07:33:38.267Z,5440.00
2022-08-30T07:34:38.251Z,5232.00
2022-08-30T07:35:38.228Z,5356.00
2022-08-30T07:36:38.207Z,5500.00
2022-08-30T07:37:38.213Z,5644.00
2022-08-30T07:38:38.212Z,5636.00
2022-08-30T07:39:44.493Z,5672.00
2022-08-30T07:40:38.244Z,5688.00
2022-08-30T07:41:38.167Z,5584.00
2022-08-30T07:42:38.160Z,5680.00
2022-08-30T07:43:38.159Z,5632.00
2022-08-30T07:44:38.122Z,4308.00
2022-08-30T07:45:38.122Z,5600.00
2022-08-30T07:46:38.149Z,5592.00
2022-08-30T07:47:38.113Z,5484.00
2022-08-30T07:48:38.136Z,5504.00
2022-08-30T07:49:38.149Z,5432.00
2022-08-30T07:50:38.079Z,5516.00
2022-08-30T07:51:38.051Z,5660.00
2022-08-30T07:53:38.125Z,5816.00
2022-08-30T07:54:38.036Z,5884.00
2022-08-30T07:55:38.030Z,5736.00
2022-08-30T07:56:37.990Z,5660.00
2022-08-30T07:57:38.013Z,5376.00
2022-08-30T07:58:37.979Z,5740.00
2022-08-30T07:59:38.011Z,5764.00
2022-08-30T08:00:38.023Z,5560.00
2022-08-30T08:01:38.035Z,5840.00
2022-08-30T08:02:37.982Z,5912.00
2022-08-30T08:03:37.927Z,5992.00
2022-08-30T08:04:37.938Z,6024.00
2022-08-30T08:05:37.944Z,6064.00
2022-08-30T08:06:37.901Z,5464.00
2022-08-30T08:07:37.879Z,3920.00
2022-08-30T08:08:37.894Z,5820.00
2022-08-30T08:09:37.893Z,5208.00
2022-08-30T08:10:37.860Z,5252.00
2022-08-30T08:11:37.851Z,5324.00
2022-08-30T08:12:37.835Z,5672.00
2022-08-30T08:13:50.636Z,5780.00
2022-08-30T08:14:37.830Z,5808.00
2022-08-30T08:15:37.860Z,5592.00
2022-08-30T08:16:37.804Z,5332.00
2022-08-30T08:17:37.785Z,5672.00
2022-08-30T08:18:37.783Z,5464.00
2022-08-30T08:19:37.849Z,5464.00
2022-08-30T08:20:37.762Z,5592.00
2022-08-30T08:21:37.734Z,5604.00
2022-08-30T08:22:40.037Z,5528.00
2022-08-30T08:23:38.743Z,5196.00
2022-08-30T08:24:37.758Z,5224.00
2022-08-30T08:25:37.671Z,5504.00
2022-08-30T08:26:37.711Z,5380.00
2022-08-30T08:27:37.649Z,5528.00
2022-08-30T08:28:37.645Z,5444.00
2022-08-30T08:29:37.668Z,5432.00
2022-08-30T08:30:37.653Z,5540.00
2022-08-30T08:31:37.698Z,5456.00
2022-08-30T08:32:37.638Z,5300.00
2022-08-30T08:33:37.581Z,5208.00
2022-08-30T08:34:37.719Z,5556.00
2022-08-30T08:35:37.726Z,5436.00
2022-08-30T08:36:37.808Z,5312.00
2022-08-30T08:37:37.641Z,5400.00
2022-08-30T08:38:37.852Z,5468.00
2022-08-30T08:39:37.522Z,5616.00
2022-08-30T08:40:37.637Z,5672.00
2022-08-30T08:41:37.528Z,5640.00
2022-08-30T08:42:37.489Z,5748.00
2022-08-30T08:43:37.497Z,5712.00
2022-08-30T08:44:37.497Z,5600.00
2022-08-30T08:45:37.465Z,5800.00
2022-08-30T08:46:37.702Z,6152.00
2022-08-30T08:47:37.436Z,6068.00
2022-08-30T08:48:58.461Z,6128.00
2022-08-30T08:49:37.418Z,6148.00
2022-08-30T08:50:37.422Z,5864.00
2022-08-30T08:51:37.405Z,5260.00
2022-08-30T08:52:37.405Z,5596.00
2022-08-30T08:53:50.167Z,5820.00
2022-08-30T08:54:39.361Z,6188.00
2022-08-30T08:55:37.560Z,6300.00
2022-08-30T08:56:37.349Z,6360.00
2022-08-30T08:57:37.340Z,6352.00
2022-08-30T08:58:37.311Z,6356.00
2022-08-30T08:59:37.314Z,6444.00
2022-08-30T09:00:37.304Z,6468.00
2022-08-30T09:01:37.320Z,6436.00
2022-08-30T09:02:37.273Z,6528.00
2022-08-30T09:03:37.254Z,6488.00
2022-08-30T09:04:37.269Z,6528.00
2022-08-30T09:05:37.224Z,6372.00
2022-08-30T09:06:37.254Z,6372.00
2022-08-30T09:07:37.213Z,6372.00
2022-08-30T09:08:37.195Z,6196.00
2022-08-30T09:09:37.197Z,6088.00
2022-08-30T09:10:49.773Z,6076.00
2022-08-30T09:11:37.183Z,6152.00
2022-08-30T09:12:37.164Z,6256.00
2022-08-30T09:13:37.124Z,6144.00
2022-08-30T09:14:38.877Z,6276.00
2022-08-30T09:15:37.146Z,6320.00
2022-08-30T09:16:37.154Z,6520.00
2022-08-30T09:17:37.098Z,6544.00
2022-08-30T09:18:37.081Z,6472.00
2022-08-30T09:19:37.069Z,6820.00
2022-08-30T09:20:37.093Z,6144.00
2022-08-30T09:21:37.096Z,6312.00
2022-08-30T09:22:37.049Z,6400.00
2022-08-30T09:23:37.013Z,6176.00
2022-08-30T09:24:37.044Z,6268.00
2022-08-30T09:25:41.646Z,6280.00
2022-08-30T09:26:37.013Z,6420.00
2022-08-30T09:27:37.041Z,6600.00
2022-08-30T09:28:36.999Z,6244.00
2022-08-30T09:29:36.957Z,6180.00
2022-08-30T09:30:37.009Z,6288.00
2022-08-30T09:31:36.969Z,6340.00
2022-08-30T09:32:36.956Z,6528.00
2022-08-30T09:33:36.973Z,6424.00
2022-08-30T09:34:36.906Z,6480.00
2022-08-30T09:35:36.917Z,6736.00
2022-08-30T09:36:36.922Z,6800.00
2022-08-30T09:37:36.907Z,6724.00
2022-08-30T09:38:36.892Z,6900.00
2022-08-30T09:39:36.863Z,6952.00
2022-08-30T09:40:36.900Z,6984.00
2022-08-30T09:41:37.350Z,6732.00
2022-08-30T09:42:37.911Z,6532.00
2022-08-30T09:43:36.866Z,6804.00
2022-08-30T09:44:36.825Z,6792.00
2022-08-30T09:45:36.800Z,6740.00
2022-08-30T09:46:36.838Z,6728.00
2022-08-30T09:47:36.839Z,6748.00
2022-08-30T09:48:36.779Z,6884.00
2022-08-30T09:49:36.755Z,6684.00
2022-08-30T09:50:37.198Z,6784.00
2022-08-30T09:51:36.736Z,7072.00
2022-08-30T09:52:36.765Z,7468.00
2022-08-30T09:53:36.745Z,7396.00
2022-08-30T09:54:36.738Z,5840.00
2022-08-30T09:55:36.685Z,7396.00
2022-08-30T09:56:36.741Z,7304.00
2022-08-30T09:57:36.675Z,7444.00
2022-08-30T09:58:36.674Z,7388.00
2022-08-30T09:59:36.644Z,6596.00
2022-08-30T10:00:36.664Z,6592.00
2022-08-30T10:01:36.657Z,7200.00
2022-08-30T10:02:36.633Z,7152.00
2022-08-30T10:03:40.736Z,7268.00
2022-08-30T10:04:36.579Z,7308.00
2022-08-30T10:05:36.767Z,7480.00
2022-08-30T10:06:36.637Z,7708.00
2022-08-30T10:07:36.586Z,7772.00
2022-08-30T10:08:36.589Z,7724.00
2022-08-30T10:09:36.583Z,7732.00
2022-08-30T10:10:36.548Z,7792.00
2022-08-30T10:11:36.540Z,7720.00
2022-08-30T10:12:36.506Z,7580.00
2022-08-30T10:13:36.550Z,7648.00
2022-08-30T10:14:36.673Z,7676.00
2022-08-30T10:15:36.703Z,7820.00
2022-08-30T10:16:36.907Z,7940.00
2022-08-30T10:17:36.601Z,7904.00
2022-08-30T10:18:36.735Z,7888.00
2022-08-30T10:19:36.653Z,7872.00
2022-08-30T10:20:36.478Z,7832.00
2022-08-30T10:21:36.465Z,8040.00
2022-08-30T10:22:36.406Z,7940.00
2022-08-30T10:23:36.393Z,8028.00
2022-08-30T10:24:36.442Z,8004.00
2022-08-30T10:25:36.392Z,8056.00
2022-08-30T10:26:36.345Z,7960.00
2022-08-30T10:27:36.341Z,7980.00
2022-08-30T10:28:36.410Z,7932.00
2022-08-30T10:29:39.499Z,7988.00
2022-08-30T10:30:37.425Z,7840.00
2022-08-30T10:31:36.543Z,7868.00
2022-08-30T10:32:36.280Z,7792.00
2022-08-30T10:33:36.326Z,7756.00
2022-08-30T10:34:36.282Z,7776.00
2022-08-30T10:35:38.963Z,5452.00
2022-08-30T10:36:37.027Z,5436.00
2022-08-30T10:37:36.279Z,7892.00
2022-08-30T10:38:36.210Z,7916.00
2022-08-30T10:39:36.255Z,5536.00
2022-08-30T10:40:36.378Z,6880.00
2022-08-30T10:41:36.250Z,6268.00
2022-08-30T10:42:39.926Z,6040.00
2022-08-30T10:43:36.177Z,7780.00
2022-08-30T10:44:36.239Z,7796.00
2022-08-30T10:45:36.886Z,7812.00
2022-08-30T10:46:36.152Z,6968.00
2022-08-30T10:47:36.134Z,7360.00
2022-08-30T10:48:36.164Z,7820.00
2022-08-30T10:49:36.119Z,7708.00
2022-08-30T10:50:41.173Z,7872.00
2022-08-30T10:51:37.096Z,7900.00
2022-08-30T10:52:36.109Z,6392.00
2022-08-30T10:53:36.052Z,5068.00
2022-08-30T10:54:36.051Z,7404.00
2022-08-30T10:55:36.064Z,7620.00
2022-08-30T10:56:36.035Z,4732.00
2022-08-30T10:57:36.055Z,4932.00
2022-08-30T10:58:36.000Z,4976.00
2022-08-30T10:59:36.000Z,5024.00
2022-08-30T11:00:36.023Z,5248.00
2022-08-30T11:01:35.989Z,6532.00
2022-08-30T11:02:35.971Z,6232.00
2022-08-30T11:03:36.034Z,8444.00
2022-08-30T11:04:35.961Z,6840.00
2022-08-30T11:05:35.992Z,7564.00
2022-08-30T11:06:35.917Z,9252.00
2022-08-30T11:07:35.908Z,5952.00
2022-08-30T11:08:35.926Z,5596.00
2022-08-30T11:09:36.076Z,5440.00
2022-08-30T11:10:35.932Z,5376.00
2022-08-30T11:11:35.886Z,5412.00
2022-08-30T11:12:35.879Z,5472.00
2022-08-30T11:13:35.855Z,5400.00
2022-08-30T11:14:35.851Z,5192.00
2022-08-30T11:15:35.838Z,5116.00
2022-08-30T11:16:35.880Z,5068.00
2022-08-30T11:17:35.807Z,5124.00
2022-08-30T11:18:35.815Z,5332.00
2022-08-30T11:19:35.811Z,5340.00
2022-08-30T11:20:35.801Z,5416.00
2022-08-30T11:21:35.817Z,5504.00
2022-08-30T11:22:39.027Z,5664.00
2022-08-30T11:23:35.762Z,7876.00
2022-08-30T11:24:35.722Z,8032.00
2022-08-30T11:25:38.573Z,7720.00
2022-08-30T11:26:35.745Z,6168.00
2022-08-30T11:27:35.712Z,5388.00
2022-08-30T11:28:35.711Z,5312.00
2022-08-30T11:29:35.688Z,5456.00
2022-08-30T11:30:35.724Z,5568.00
2022-08-30T11:31:35.711Z,5356.00
2022-08-30T11:32:35.666Z,5296.00
2022-08-30T11:33:35.653Z,5400.00
2022-08-30T11:34:35.630Z,5460.00
2022-08-30T11:35:35.629Z,8048.00
2022-08-30T11:36:37.932Z,8172.00
2022-08-30T11:37:35.614Z,8380.00
2022-08-30T11:38:35.574Z,8508.00
2022-08-30T11:39:35.568Z,7592.00
2022-08-30T11:40:35.577Z,6080.00
2022-08-30T11:41:40.851Z,6020.00
2022-08-30T11:42:35.913Z,5932.00
2022-08-30T11:43:36.693Z,5828.00
2022-08-30T11:44:35.530Z,5720.00
2022-08-30T11:45:35.604Z,5576.00
2022-08-30T11:46:35.505Z,5388.00
2022-08-30T11:47:35.547Z,5252.00
2022-08-30T11:48:35.476Z,5148.00
2022-08-30T11:49:35.450Z,4908.00
2022-08-30T11:50:35.467Z,4864.00
2022-08-30T11:51:35.440Z,4828.00
2022-08-30T11:52:35.458Z,4712.00
2022-08-30T11:53:35.420Z,4640.00
2022-08-30T11:54:35.443Z,4616.00
2022-08-30T11:55:35.402Z,4672.00
2022-08-30T11:56:35.475Z,4760.00
2022-08-30T11:57:35.383Z,4976.00
2022-08-30T11:58:35.390Z,5080.00
2022-08-30T11:59:35.360Z,5060.00
2022-08-30T12:00:35.473Z,5212.00
2022-08-30T12:01:51.152Z,6860.00
2022-08-30T12:02:37.504Z,7872.00
2022-08-30T12:03:35.435Z,7928.00
2022-08-30T12:04:35.317Z,7928.00
2022-08-30T12:05:35.304Z,8044.00
2022-08-30T12:06:35.290Z,6216.00
2022-08-30T12:07:35.902Z,6440.00
2022-08-30T12:08:36.108Z,7500.00
2022-08-30T12:09:35.323Z,7376.00
2022-08-30T12:10:35.281Z,7516.00
2022-08-30T12:11:35.232Z,7732.00
2022-08-30T12:12:35.194Z,7580.00
2022-08-30T12:13:35.183Z,8000.00
2022-08-30T12:14:35.182Z,8024.00
2022-08-30T12:15:35.249Z,8268.00
2022-08-30T12:16:35.260Z,8248.00
2022-08-30T12:17:35.142Z,8300.00
2022-08-30T12:18:35.151Z,8108.00
2022-08-30T12:19:35.113Z,8124.00
2022-08-30T12:20:35.146Z,8220.00
2022-08-30T12:21:43.907Z,8348.00
2022-08-30T12:22:35.282Z,8496.00
2022-08-30T12:23:35.115Z,7184.00
2022-08-30T12:24:35.185Z,7068.00
2022-08-30T12:25:35.205Z,7144.00
2022-08-30T12:26:35.058Z,8492.00
2022-08-30T12:27:35.103Z,8896.00
2022-08-30T12:28:35.070Z,7360.00
2022-08-30T12:29:35.001Z,7316.00
2022-08-30T12:30:35.030Z,7280.00
2022-08-30T12:31:35.257Z,7240.00
2022-08-30T12:32:35.068Z,7116.00
2022-08-30T12:33:41.321Z,6916.00
2022-08-30T12:34:35.966Z,6816.00
2022-08-30T12:35:35.181Z,6756.00
2022-08-30T12:36:35.125Z,6768.00
2022-08-30T12:37:34.934Z,6852.00
2022-08-30T12:38:34.944Z,6956.00
2022-08-30T12:39:34.930Z,7032.00
2022-08-30T12:40:35.011Z,7040.00
2022-08-30T12:41:34.894Z,7140.00
2022-08-30T12:46:42.908Z,7004.00
2022-08-30T12:47:43.363Z,6552.00
2022-08-30T12:48:42.819Z,6148.00
2022-08-30T12:49:42.940Z,7000.00
2022-08-30T12:50:42.720Z,7760.00
2022-08-30T12:51:42.742Z,7664.00
2022-08-30T12:52:42.728Z,7520.00
2022-08-30T12:53:42.728Z,7216.00
2022-08-30T12:54:42.725Z,6892.00
2022-08-30T12:55:42.701Z,6604.00
2022-08-30T12:56:49.934Z,6540.00
2022-08-30T12:57:43.678Z,6656.00
2022-08-30T12:58:42.628Z,6816.00
2022-08-30T12:59:44.392Z,7108.00
2022-08-30T13:00:42.875Z,7292.00
2022-08-30T13:01:42.759Z,7292.00
2022-08-30T13:02:42.646Z,7224.00
2022-08-30T13:03:42.621Z,7164.00
2022-08-30T13:04:42.561Z,6020.00
2022-08-30T13:05:45.786Z,5808.00
2022-08-30T13:06:42.541Z,6428.00
2022-08-30T13:07:42.582Z,7140.00
2022-08-30T13:08:42.523Z,6288.00
2022-08-30T13:09:42.642Z,6508.00
2022-08-30T13:10:42.530Z,6144.00
2022-08-30T13:11:42.466Z,6084.00
2022-08-30T13:12:42.472Z,6096.00
2022-08-30T13:13:44.337Z,6060.00
2022-08-30T13:14:43.771Z,6088.00
2022-08-30T13:15:43.691Z,6204.00
2022-08-30T13:16:45.454Z,6316.00
2022-08-30T13:17:43.623Z,6368.00
2022-08-30T13:18:43.574Z,6332.00
2022-08-30T13:19:43.557Z,6316.00
2022-08-30T13:20:43.521Z,6348.00
2022-08-30T13:21:43.519Z,6552.00
2022-08-30T13:22:43.492Z,6772.00
2022-08-30T13:23:43.469Z,6900.00
2022-08-30T13:24:43.462Z,6852.00
2022-08-30T13:25:43.486Z,7708.00
2022-08-30T13:26:43.455Z,6660.00
2022-08-30T13:27:43.452Z,6596.00
2022-08-30T13:28:43.417Z,6676.00
2022-08-30T13:29:44.423Z,7000.00
2022-08-30T13:30:43.469Z,7316.00
2022-08-30T13:31:43.476Z,7912.00
2022-08-30T13:32:43.409Z,8116.00
2022-08-30T13:33:43.383Z,7724.00
2022-08-30T13:34:43.393Z,6956.00
2022-08-30T13:35:43.331Z,6512.00
2022-08-30T13:36:44.826Z,7408.00
2022-08-30T13:37:49.569Z,7596.00
2022-08-30T13:38:45.323Z,7616.00
2022-08-30T13:39:43.343Z,7504.00
2022-08-30T13:40:43.335Z,6852.00
2022-08-30T13:41:43.384Z,6436.00
2022-08-30T13:42:43.240Z,5700.00
2022-08-30T13:44:43.262Z,5644.00
2022-08-30T13:45:43.465Z,5724.00
2022-08-30T13:46:43.465Z,6056.00
2022-08-30T13:47:43.375Z,5876.00
2022-08-30T13:48:43.223Z,6076.00
2022-08-30T13:49:43.824Z,6332.00
2022-08-30T13:50:44.180Z,7884.00
2022-08-30T13:51:58.117Z,6720.00
2022-08-30T13:52:43.191Z,6824.00
2022-08-30T13:53:58.522Z,6756.00
2022-08-30T13:54:45.121Z,6744.00
2022-08-30T13:55:43.259Z,6852.00
2022-08-30T13:56:43.140Z,6824.00
2022-08-30T13:57:58.382Z,6644.00
2022-08-30T13:58:45.096Z,6488.00
2022-08-30T13:59:43.072Z,6432.00
2022-08-30T14:00:43.089Z,6352.00
2022-08-30T14:02:48.797Z,6456.00
2022-08-30T14:04:43.098Z,6796.00
2022-08-30T14:06:00.474Z,6848.00
2022-08-30T14:07:43.031Z,6956.00
2022-08-30T14:08:45.278Z,7420.00
2022-08-30T14:09:43.976Z,7492.00
2022-08-30T14:10:47.163Z,6896.00
2022-08-30T14:11:43.955Z,8376.00
2022-08-30T14:13:08.181Z,8440.00
2022-08-30T14:14:44.198Z,8008.00
2022-08-30T14:15:42.879Z,8176.00
2022-08-30T14:16:42.942Z,7032.00
2022-08-30T14:17:42.882Z,7672.00
2022-08-30T14:18:42.876Z,8304.00
2022-08-30T14:19:42.874Z,8516.00
2022-08-30T14:20:43.908Z,8128.00
2022-08-30T14:21:43.115Z,9232.00
2022-08-30T14:22:42.854Z,9488.00
2022-08-30T14:23:42.855Z,8680.00
2022-08-30T14:24:42.809Z,9216.00
2022-08-30T14:25:42.820Z,7528.00
2022-08-30T14:26:43.478Z,7136.00
2022-08-30T14:27:42.862Z,6816.00
2022-08-30T14:28:42.813Z,6876.00
2022-08-30T14:29:43.122Z,6304.00
2022-08-30T14:30:42.756Z,6124.00
2022-08-30T14:31:42.795Z,5992.00
2022-08-30T14:32:42.981Z,5844.00
2022-08-30T14:33:42.708Z,5456.00
2022-08-30T14:34:42.685Z,5308.00
2022-08-30T14:35:42.685Z,5276.00
2022-08-30T14:36:42.662Z,5172.00
2022-08-30T14:37:42.702Z,4984.00
2022-08-30T14:38:42.929Z,4800.00
2022-08-30T14:39:42.619Z,4696.00
2022-08-30T14:40:42.658Z,4836.00
2022-08-30T14:41:43.625Z,4964.00
2022-08-30T14:42:42.620Z,5052.00
2022-08-30T14:43:42.628Z,5152.00
2022-08-30T14:44:55.843Z,5212.00
2022-08-30T14:45:42.611Z,5188.00
2022-08-30T14:48:53.421Z,5084.00
2022-08-30T14:48:59.983Z,4744.00
2022-08-30T14:49:59.931Z,4584.00
2022-08-30T14:51:00.039Z,4496.00
2022-08-30T14:51:59.932Z,4424.00
2022-08-30T14:52:59.955Z,4372.00
2022-08-30T14:53:59.911Z,4276.00
2022-08-30T14:55:05.268Z,4204.00
2022-08-30T14:55:59.953Z,4224.00
2022-08-30T14:57:00.945Z,4304.00
2022-08-30T14:57:59.860Z,4364.00
2022-08-30T14:58:59.793Z,4448.00
2022-08-30T14:59:59.802Z,4600.00
2022-08-30T15:00:59.906Z,4832.00
2022-08-30T15:01:59.855Z,5164.00
2022-08-30T15:02:59.814Z,5464.00
2022-08-30T15:03:59.818Z,5648.00
2022-08-30T15:04:59.874Z,5920.00
2022-08-30T15:05:59.711Z,6156.00
2022-08-30T15:06:59.692Z,6388.00
2022-08-30T15:07:59.695Z,7224.00
2022-08-30T15:09:00.006Z,6584.00
2022-08-30T15:09:59.693Z,6688.00
2022-08-30T15:10:59.666Z,6824.00
2022-08-30T15:11:59.642Z,6696.00
2022-08-30T15:12:59.633Z,6532.00
2022-08-30T15:13:59.669Z,6364.00
2022-08-30T15:14:59.611Z,6328.00
2022-08-30T15:15:59.597Z,6520.00
2022-08-30T15:16:59.570Z,6260.00
2022-08-30T15:17:59.808Z,6244.00
2022-08-30T15:18:59.561Z,6384.00
2022-08-30T15:19:59.521Z,6500.00
2022-08-30T15:20:59.513Z,6408.00
2022-08-30T15:21:59.505Z,6204.00
2022-08-30T15:22:59.496Z,5996.00
2022-08-30T15:23:59.490Z,5784.00
2022-08-30T15:24:59.492Z,5672.00
2022-08-30T15:25:59.462Z,5520.00
2022-08-30T15:26:59.728Z,5512.00
2022-08-30T15:27:59.442Z,5500.00
2022-08-30T15:28:59.435Z,5484.00
2022-08-30T15:29:59.431Z,5472.00
2022-08-30T15:30:59.525Z,5472.00
2022-08-30T15:31:59.423Z,5404.00
2022-08-30T15:32:59.391Z,5432.00
2022-08-30T15:33:59.363Z,5360.00
2022-08-30T15:34:59.398Z,5752.00
2022-08-30T15:35:59.351Z,5208.00
2022-08-30T15:36:59.337Z,5556.00
2022-08-30T15:37:59.338Z,5016.00
2022-08-30T15:38:59.323Z,5340.00
2022-08-30T15:39:59.384Z,5460.00
2022-08-30T15:40:59.306Z,5484.00
2022-08-30T15:42:01.011Z,5508.00
2022-08-30T15:42:59.348Z,5140.00
2022-08-30T15:43:59.254Z,5028.00
2022-08-30T15:44:59.329Z,5208.00
2022-08-30T15:45:59.260Z,4984.00
2022-08-30T15:46:59.295Z,5144.00
2022-08-30T15:47:59.243Z,4932.00
2022-08-30T15:48:59.228Z,5352.00
2022-08-30T15:49:59.269Z,5300.00
2022-08-30T15:50:59.186Z,5392.00
2022-08-30T15:52:34.464Z,5760.00
2022-08-30T15:52:59.491Z,5732.00
2022-08-30T15:53:59.293Z,5856.00
2022-08-30T15:54:59.565Z,5204.00
2022-08-30T15:55:59.926Z,5368.00
2022-08-30T15:56:59.750Z,5484.00
2022-08-30T15:57:59.265Z,5404.00
2022-08-30T15:58:59.117Z,5192.00
2022-08-30T15:59:59.087Z,5324.00
2022-08-30T16:00:59.358Z,5356.00
2022-08-30T16:01:59.337Z,5288.00
2022-08-30T16:02:59.145Z,4756.00
2022-08-30T16:03:59.120Z,4600.00
2022-08-30T16:04:59.075Z,5168.00
2022-08-30T16:05:59.141Z,5240.00
2022-08-30T16:06:59.252Z,5304.00
2022-08-30T16:07:59.737Z,5336.00
2022-08-30T16:08:58.997Z,5292.00
2022-08-30T16:09:59.297Z,5252.00
2022-08-30T16:10:59.384Z,5204.00
2022-08-30T16:11:59.154Z,5120.00
2022-08-30T16:12:59.064Z,5008.00
2022-08-30T16:13:59.024Z,4832.00
2022-08-30T16:14:58.988Z,4496.00
2022-08-30T16:15:58.977Z,4340.00
2022-08-30T16:16:58.953Z,4628.00
2022-08-30T16:17:59.262Z,4756.00
2022-08-30T16:18:58.962Z,4412.00
2022-08-30T16:19:59.134Z,4628.00
2022-08-30T16:20:59.024Z,4184.00
2022-08-30T16:21:58.850Z,4184.00
2022-08-30T16:22:58.883Z,4388.00
2022-08-30T16:23:58.844Z,4388.00
2022-08-30T16:24:58.850Z,4256.00
2022-08-30T16:26:04.257Z,4120.00
2022-08-30T16:26:58.858Z,4072.00
2022-08-30T16:27:59.260Z,4168.00
2022-08-30T16:28:58.831Z,3980.00
2022-08-30T16:29:58.795Z,4136.00
2022-08-30T16:30:58.901Z,3920.00
2022-08-30T16:31:58.901Z,3908.00
2022-08-30T16:32:58.747Z,3856.00
2022-08-30T16:34:03.670Z,3972.00
2022-08-30T16:34:58.712Z,3960.00
2022-08-30T16:35:58.784Z,3928.00
2022-08-30T16:36:58.719Z,3872.00
2022-08-30T16:37:58.932Z,3820.00
2022-08-30T16:38:58.689Z,3808.00
2022-08-30T16:39:58.890Z,3804.00
2022-08-30T16:40:58.723Z,3760.00
2022-08-30T16:41:58.675Z,3672.00
2022-08-30T16:42:58.725Z,3584.00
2022-08-30T16:43:58.624Z,3496.00
2022-08-30T16:44:58.638Z,3384.00
2022-08-30T16:45:58.635Z,3220.00
2022-08-30T16:46:58.704Z,3076.00
2022-08-30T16:47:58.794Z,2952.00
2022-08-30T16:48:58.750Z,2852.00
2022-08-30T16:49:58.619Z,2572.00
2022-08-30T16:50:59.153Z,2472.00
2022-08-30T16:51:58.508Z,2292.00
2022-08-30T16:52:58.497Z,2240.00
2022-08-30T16:53:58.488Z,2244.00
2022-08-30T16:54:58.473Z,2376.00
2022-08-30T16:55:58.430Z,2460.00
2022-08-30T16:56:58.415Z,2468.00
2022-08-30T16:57:58.487Z,2508.00
2022-08-30T16:59:02.613Z,2468.00
2022-08-30T16:59:58.518Z,2444.00
2022-08-30T17:00:58.444Z,2484.00
2022-08-30T17:01:58.464Z,2520.00
2022-08-30T17:02:58.426Z,2516.00
2022-08-30T17:03:58.547Z,2484.00
2022-08-30T17:04:58.346Z,2420.00
2022-08-30T17:05:58.347Z,2344.00
2022-08-30T17:06:58.734Z,2264.00
2022-08-30T17:07:58.367Z,2196.00
2022-08-30T17:08:58.277Z,2156.00
2022-08-30T17:09:58.484Z,2116.00
2022-08-30T17:10:58.264Z,2068.00
2022-08-30T17:11:58.255Z,2012.00
2022-08-30T17:12:58.253Z,1956.00
2022-08-30T17:13:58.243Z,1904.00
2022-08-30T17:14:58.220Z,1852.00
2022-08-30T17:15:58.356Z,1792.00
2022-08-30T17:16:58.186Z,1728.00
2022-08-30T17:17:58.175Z,1632.00
2022-08-30T17:18:59.887Z,1536.00
2022-08-30T17:19:58.166Z,1440.00
2022-08-30T17:20:58.166Z,1348.00
2022-08-30T17:21:58.416Z,1260.00
2022-08-30T17:22:58.118Z,1184.00
2022-08-30T17:24:01.648Z,1112.00
2022-08-30T17:24:58.096Z,1056.00
2022-08-30T17:25:58.089Z,1016.00
2022-08-30T17:26:58.280Z,984.00
2022-08-30T17:27:58.089Z,960.00
2022-08-30T17:28:58.164Z,936.00
2022-08-30T17:29:58.026Z,908.00
2022-08-30T17:30:58.077Z,856.00
2022-08-30T17:31:58.100Z,788.00
2022-08-30T17:32:57.998Z,716.00
2022-08-30T17:34:01.236Z,652.00
2022-08-30T17:34:57.988Z,592.00
2022-08-30T17:35:57.976Z,552.00
2022-08-30T17:36:57.939Z,528.00
2022-08-30T17:37:57.925Z,508.00
2022-08-30T17:38:57.935Z,484.00
2022-08-30T17:39:57.949Z,468.00
2022-08-30T17:40:57.898Z,452.00
2022-08-30T17:41:57.880Z,432.00
2022-08-30T17:42:57.886Z,420.00
2022-08-30T17:43:57.857Z,404.00
2022-08-30T17:45:01.250Z,392.00
2022-08-30T17:45:57.842Z,376.00
2022-08-30T17:46:57.899Z,356.00
2022-08-30T17:47:57.820Z,328.00
2022-08-30T17:49:01.247Z,296.00
2022-08-30T17:49:57.813Z,276.00
2022-08-30T17:50:57.816Z,256.00
2022-08-30T17:51:57.923Z,240.00
2022-08-30T17:52:57.753Z,224.00
2022-08-30T17:53:57.731Z,208.00
2022-08-30T17:54:57.741Z,196.00
2022-08-30T17:55:57.702Z,184.00
2022-08-30T17:56:57.694Z,168.00
2022-08-30T17:57:57.687Z,160.00
2022-08-30T17:58:57.694Z,148.00
2022-08-30T17:59:57.693Z,140.00
2022-08-30T18:00:57.701Z,132.00
2022-08-30T18:01:57.700Z,120.00
2022-08-30T18:02:57.917Z,112.00
2022-08-30T18:04:01.563Z,104.00
2022-08-30T18:04:58.169Z,100.00
2022-08-30T18:05:57.582Z,92.00
2022-08-30T18:06:57.623Z,84.00
2022-08-30T18:07:57.589Z,76.00
2022-08-30T18:08:57.560Z,72.00
2022-08-30T18:09:57.573Z,68.00
2022-08-30T18:10:57.526Z,60.00
2022-08-30T18:11:57.572Z,56.00
2022-08-30T18:12:57.503Z,52.00
2022-08-30T18:13:58.094Z,48.00
2022-08-30T18:14:57.475Z,44.00
2022-08-30T18:15:57.514Z,40.00
2022-08-30T18:16:57.480Z,36.00
2022-08-30T18:17:57.438Z,32.00
2022-08-30T18:18:57.697Z,32.00
2022-08-30T18:19:57.757Z,28.00
2022-08-30T18:20:57.408Z,24.00
2022-08-30T18:21:57.392Z,24.00
2022-08-30T18:22:57.384Z,20.00
2022-08-30T18:23:57.825Z,16.00
2022-08-30T18:25:02.128Z,16.00
2022-08-30T18:25:57.505Z,16.00
2022-08-30T18:26:57.387Z,12.00
2022-08-30T18:27:58.895Z,8.00
2022-08-30T18:28:57.315Z,12.00
2022-08-30T18:29:57.357Z,8.00
2022-08-30T18:30:57.372Z,8.00
2022-08-30T18:31:57.326Z,8.00
2022-08-30T18:32:57.284Z,4.00
2022-08-30T18:33:57.452Z,4.00
2022-08-30T18:34:57.262Z,4.00
2022-08-30T18:35:57.310Z,4.00